Time;durP1;ratioP1;P1;durP2;ratioP2;P2;SDS_P1;SDS_P2;PMS_P1;PMS_P2;Temp;Humidity;BMP_temperature;BMP_pressure;BME280_temperature;BME280_humidity;BME280_pressure;Samples;Min_cycle;Max_cycle;Signal;HPM_P1;HPM_P2
2021/01/15 00:00:57;;;;;;;3.88;2.50;;;8.60;1.00;;;;;;5114668;28;20491;-85
2021/01/15 00:03:23;;;;;;;4.60;3.22;;;8.60;1.00;;;;;;5114053;28;20516;-85
2021/01/15 00:05:49;;;;;;;5.35;3.17;;;8.60;1.00;;;;;;5105470;28;20028;-85
2021/01/15 00:08:14;;;;;;;6.13;4.07;;;8.50;1.00;;;;;;5094360;28;20394;-85
2021/01/15 00:10:40;;;;;;;4.03;2.28;;;8.50;1.00;;;;;;5093934;28;20055;-85
2021/01/15 00:13:05;;;;;;;5.03;2.90;;;8.50;1.00;;;;;;5092970;28;20439;-85
2021/01/15 00:15:31;;;;;;;4.57;3.38;;;8.50;1.00;;;;;;5094231;28;20106;-85
2021/01/15 00:17:56;;;;;;;2.75;2.47;;;8.50;1.00;;;;;;5111322;28;20039;-85
2021/01/15 00:20:22;;;;;;;2.28;1.70;;;8.50;1.00;;;;;;5107713;28;20081;-85
2021/01/15 00:22:48;;;;;;;2.90;1.80;;;8.50;1.00;;;;;;5093953;28;20032;-85
2021/01/15 00:25:14;;;;;;;2.58;1.90;;;8.40;1.00;;;;;;5093482;28;20115;-85
2021/01/15 00:27:40;;;;;;;2.35;1.83;;;8.50;1.00;;;;;;5092686;28;20031;-86
2021/01/15 00:30:08;;;;;;;2.65;2.00;;;8.50;1.00;;;;;;5092328;28;20024;-85
2021/01/15 00:32:35;;;;;;;3.83;1.85;;;8.50;1.00;;;;;;5093637;28;20024;-85
2021/01/15 00:35:00;;;;;;;2.88;1.23;;;8.50;1.00;;;;;;5093737;28;20058;-85
2021/01/15 00:37:26;;;;;;;2.25;1.30;;;8.50;1.00;;;;;;5092340;28;20016;-85
2021/01/15 00:39:52;;;;;;;2.35;1.23;;;8.60;1.00;;;;;;5095563;28;20044;-85
2021/01/15 00:42:17;;;;;;;1.88;0.90;;;8.60;1.00;;;;;;5092483;28;20043;-85
2021/01/15 00:44:45;;;;;;;1.45;1.10;;;8.60;1.00;;;;;;5093571;28;20035;-85
2021/01/15 00:47:12;;;;;;;0.73;0.73;;;8.50;1.00;;;;;;5093106;28;20396;-85
2021/01/15 00:49:37;;;;;;;1.30;0.98;;;8.60;1.00;;;;;;5092071;28;20024;-86
2021/01/15 00:52:03;;;;;;;2.10;1.00;;;8.60;1.00;;;;;;5092180;28;20021;-85
2021/01/15 00:54:29;;;;;;;1.30;1.10;;;8.60;1.00;;;;;;5093692;28;20028;-85
2021/01/15 00:57:01;;;;;;;1.77;1.13;;;8.60;1.00;;;;;;5093191;28;20021;-85
2021/01/15 00:59:27;;;;;;;2.47;1.40;;;8.50;1.00;;;;;;5093185;28;20435;-85
2021/01/15 01:01:52;;;;;;;2.45;1.35;;;8.50;1.00;;;;;;5092653;28;20035;-85
2021/01/15 01:04:18;;;;;;;2.90;1.58;;;8.60;1.00;;;;;;5093268;28;20024;-86
2021/01/15 01:06:44;;;;;;;2.13;1.50;;;8.60;1.00;;;;;;5093110;28;20086;-85
2021/01/15 01:09:09;;;;;;;2.63;1.58;;;8.60;1.00;;;;;;5091018;28;20024;-85
2021/01/15 01:11:36;;;;;;;1.75;1.48;;;8.60;1.00;;;;;;5091813;28;20024;-85
2021/01/15 01:14:04;;;;;;;1.52;1.40;;;8.70;1.00;;;;;;5092860;28;20099;-85
2021/01/15 01:16:30;;;;;;;2.15;1.40;;;8.60;1.00;;;;;;5099624;28;20059;-86
2021/01/15 01:18:56;;;;;;;2.17;1.52;;;8.60;1.00;;;;;;5113182;28;20019;-85
2021/01/15 01:21:23;;;;;;;2.10;1.40;;;8.60;1.00;;;;;;5113176;28;20076;-85
2021/01/15 01:23:49;;;;;;;1.55;1.45;;;8.70;1.00;;;;;;5102102;28;20032;-85
2021/01/15 01:26:15;;;;;;;2.10;1.70;;;8.70;1.00;;;;;;5092814;28;20073;-85
2021/01/15 01:28:42;;;;;;;2.17;1.70;;;8.90;1.00;;;;;;5091378;28;20031;-86
2021/01/15 01:31:09;;;;;;;1.60;1.50;;;8.90;1.00;;;;;;5090916;28;20059;-85
2021/01/15 01:33:35;;;;;;;1.33;1.23;;;8.90;1.00;;;;;;5091523;28;20044;-86
2021/01/15 01:36:00;;;;;;;2.17;1.50;;;8.90;1.00;;;;;;5091287;28;20052;-85
2021/01/15 01:38:26;;;;;;;1.73;1.25;;;8.80;1.00;;;;;;5099750;28;20426;-86
2021/01/15 01:40:52;;;;;;;1.90;1.70;;;8.80;1.00;;;;;;5112772;28;20031;-85
2021/01/15 01:43:18;;;;;;;1.40;1.30;;;8.80;1.00;;;;;;5112995;28;20051;-85
2021/01/15 01:45:44;;;;;;;1.70;1.42;;;8.80;1.00;;;;;;5112700;28;20019;-85
2021/01/15 01:48:10;;;;;;;1.52;1.40;;;8.90;1.00;;;;;;5111445;28;20118;-85
2021/01/15 01:50:41;;;;;;;1.85;1.45;;;8.90;1.00;;;;;;5111587;28;20085;-86
2021/01/15 01:53:10;;;;;;;1.60;1.30;;;8.90;1.00;;;;;;5108962;28;20540;-86
2021/01/15 01:55:37;;;;;;;1.60;1.40;;;8.90;1.00;;;;;;5112722;28;20469;-85
2021/01/15 01:58:04;;;;;;;2.05;1.70;;;8.90;1.00;;;;;;5112611;28;20020;-85
2021/01/15 02:00:30;;;;;;;3.10;1.73;;;8.90;1.00;;;;;;5112506;28;20020;-86
2021/01/15 02:02:55;;;;;;;2.17;1.50;;;9.00;1.00;;;;;;5112692;28;20072;-86
2021/01/15 02:05:21;;;;;;;2.45;1.40;;;8.90;1.00;;;;;;5112640;28;20028;-85
2021/01/15 02:07:50;;;;;;;3.03;1.90;;;8.90;1.00;;;;;;5100995;28;20118;-86
2021/01/15 02:10:37;;;;;;;3.08;1.63;;;8.90;1.00;;;;;;5092537;28;20028;-86
2021/01/15 02:13:14;;;;;;;3.00;1.45;;;9.00;1.00;;;;;;5091934;28;20418;-85
2021/01/15 02:16:03;;;;;;;2.70;1.67;;;9.00;1.00;;;;;;5096519;28;20052;-85
2021/01/15 02:18:45;;;;;;;2.28;1.10;;;8.90;1.00;;;;;;5096376;28;20028;-86
2021/01/15 02:21:30;;;;;;;2.92;1.40;;;8.90;1.00;;;;;;5095021;28;20028;-85
2021/01/15 02:24:17;;;;;;;1.75;1.25;;;9.00;1.00;;;;;;5107826;28;20568;-86
2021/01/15 02:27:13;;;;;;;2.10;1.30;;;9.00;1.00;;;;;;5115351;28;20042;-86
2021/01/15 02:30:01;;;;;;;2.55;1.00;;;9.00;1.00;;;;;;5116201;27;20024;-86
2021/01/15 02:32:42;;;;;;;2.90;1.35;;;8.90;1.00;;;;;;5116433;28;20030;-86
2021/01/15 02:35:31;;;;;;;1.77;1.15;;;9.00;1.00;;;;;;5115115;28;20524;-86
2021/01/15 02:38:27;;;;;;;1.52;1.10;;;9.00;1.00;;;;;;5100195;28;20114;-86
2021/01/15 02:41:05;;;;;;;1.27;0.70;;;9.10;1.00;;;;;;5094580;28;20044;-86
2021/01/15 02:43:35;;;;;;;2.08;1.17;;;9.00;1.00;;;;;;5094334;28;20482;-86
2021/01/15 02:46:04;;;;;;;2.05;1.00;;;8.90;1.00;;;;;;5094454;28;20031;-86
2021/01/15 02:48:31;;;;;;;2.13;1.38;;;9.00;1.00;;;;;;5095593;28;20020;-86
2021/01/15 02:50:59;;;;;;;1.00;0.80;;;9.00;1.00;;;;;;5095380;28;20027;-86
2021/01/15 02:53:25;;;;;;;1.33;0.80;;;9.00;1.00;;;;;;5097387;28;20024;-86
2021/01/15 02:55:51;;;;;;;1.88;0.93;;;9.00;1.00;;;;;;5095682;28;20031;-86
2021/01/15 02:58:16;;;;;;;0.50;0.50;;;8.90;1.00;;;;;;5095306;28;20073;-86
2021/01/15 03:00:42;;;;;;;1.02;0.63;;;8.80;1.00;;;;;;5095477;28;20394;-86
2021/01/15 03:03:32;;;;;;;4.78;1.77;;;8.90;1.00;;;;;;5095315;28;20035;-85
2021/01/15 03:06:13;;;;;;;1.10;0.70;;;8.80;1.00;;;;;;5093829;28;20020;-86
2021/01/15 03:08:42;;;;;;;0.77;0.60;;;8.90;1.00;;;;;;5095450;28;20085;-86
2021/01/15 03:11:09;;;;;;;1.88;0.60;;;8.90;1.00;;;;;;5094816;28;20501;-86
2021/01/15 03:13:36;;;;;;;2.15;0.80;;;8.90;1.00;;;;;;5093898;28;20020;-86
2021/01/15 03:16:03;;;;;;;1.70;1.10;;;8.90;1.00;;;;;;5097556;27;20501;-86
2021/01/15 03:18:31;;;;;;;2.25;1.23;;;8.90;1.00;;;;;;5115593;28;20518;-86
2021/01/15 03:21:01;;;;;;;1.88;0.80;;;8.90;1.00;;;;;;5109124;28;20028;-86
2021/01/15 03:23:27;;;;;;;1.85;0.75;;;8.90;1.00;;;;;;5115504;28;20035;-86
2021/01/15 03:25:52;;;;;;;0.90;0.70;;;8.90;1.00;;;;;;5113649;28;20032;-86
2021/01/15 03:28:18;;;;;;;1.02;0.65;;;8.90;1.00;;;;;;5115219;28;20038;-85
2021/01/15 03:30:44;;;;;;;1.30;1.08;;;8.90;1.00;;;;;;5115390;28;20028;-86
2021/01/15 03:33:09;;;;;;;1.00;0.90;;;8.90;1.00;;;;;;5113892;28;20077;-86
2021/01/15 03:35:35;;;;;;;1.45;0.80;;;8.90;1.00;;;;;;5107463;28;20024;-86
2021/01/15 03:38:08;;;;;;;1.42;0.80;;;8.90;1.00;;;;;;5094824;28;20102;-86
2021/01/15 03:40:33;;;;;;;1.40;0.68;;;8.90;1.00;;;;;;5094463;28;20548;-86
2021/01/15 03:43:00;;;;;;;0.90;0.80;;;8.90;1.00;;;;;;5094860;28;20048;-86
2021/01/15 03:45:28;;;;;;;2.35;1.80;;;9.00;1.00;;;;;;5093395;28;20032;-86
2021/01/15 03:47:54;;;;;;;2.33;1.55;;;9.00;1.00;;;;;;5093499;28;20035;-86
2021/01/15 03:50:20;;;;;;;0.60;0.60;;;9.00;1.00;;;;;;5094535;28;20028;-85
2021/01/15 03:52:47;;;;;;;2.95;0.90;;;9.00;1.00;;;;;;5115214;28;20027;-86
2021/01/15 03:55:13;;;;;;;1.75;0.90;;;9.00;1.00;;;;;;5113129;28;20023;-85
2021/01/15 03:57:39;;;;;;;1.35;0.80;;;8.90;1.00;;;;;;5115131;28;20060;-86
2021/01/15 04:00:06;;;;;;;0.73;0.73;;;9.00;1.00;;;;;;5114916;28;20024;-86
2021/01/15 04:02:32;;;;;;;1.02;0.80;;;8.90;1.00;;;;;;5114350;28;20035;-85
2021/01/15 04:04:58;;;;;;;0.73;0.60;;;8.90;1.00;;;;;;5107975;28;20058;-86
2021/01/15 04:07:24;;;;;;;1.50;0.90;;;8.90;1.00;;;;;;5094117;28;20501;-85
2021/01/15 04:09:49;;;;;;;1.00;0.82;;;8.90;1.00;;;;;;5094015;28;20028;-86
2021/01/15 04:12:15;;;;;;;1.05;0.70;;;8.90;1.00;;;;;;5092873;28;20117;-85
2021/01/15 04:14:42;;;;;;;1.85;0.70;;;8.80;1.00;;;;;;5094159;28;20564;-85
2021/01/15 04:17:08;;;;;;;0.60;0.50;;;8.80;1.00;;;;;;5104451;28;20035;-86
2021/01/15 04:19:34;;;;;;;1.63;0.50;;;8.80;1.00;;;;;;5110520;28;20034;-86
2021/01/15 04:22:00;;;;;;;1.05;0.57;;;8.70;1.00;;;;;;5093038;28;20028;-85
2021/01/15 04:24:25;;;;;;;1.08;0.50;;;8.70;1.00;;;;;;5093547;28;20035;-86
2021/01/15 04:27:01;;;;;;;1.67;0.40;;;8.80;1.00;;;;;;5094015;28;20035;-86
2021/01/15 04:29:26;;;;;;;1.55;0.65;;;8.80;1.00;;;;;;5092368;28;20491;-86
2021/01/15 04:31:52;;;;;;;1.13;0.32;;;8.90;1.00;;;;;;5093943;28;20032;-86
2021/01/15 04:34:18;;;;;;;0.80;0.60;;;8.80;1.00;;;;;;5093933;28;20030;-85
2021/01/15 04:36:44;;;;;;;0.47;0.40;;;8.80;1.00;;;;;;5093273;28;20024;-86
2021/01/15 04:39:10;;;;;;;1.10;0.57;;;8.90;1.00;;;;;;5093272;28;20506;-86
2021/01/15 04:41:36;;;;;;;1.30;0.43;;;8.90;1.00;;;;;;5093785;28;20063;-86
2021/01/15 04:44:03;;;;;;;1.05;0.40;;;8.90;1.00;;;;;;5093692;28;20056;-86
2021/01/15 04:46:29;;;;;;;0.68;0.50;;;8.90;1.00;;;;;;5091821;28;20028;-86
2021/01/15 04:48:56;;;;;;;1.25;0.50;;;8.90;1.00;;;;;;5092524;28;20020;-86
2021/01/15 04:51:27;;;;;;;1.85;0.52;;;8.90;1.00;;;;;;5093725;28;20028;-85
2021/01/15 04:54:13;;;;;;;1.23;0.50;;;9.00;1.00;;;;;;5091751;28;20489;-86
2021/01/15 04:56:48;;;;;;;1.13;0.60;;;8.90;1.00;;;;;;5093438;28;20495;-86
2021/01/15 04:59:15;;;;;;;0.70;0.50;;;8.80;1.00;;;;;;5093309;28;20016;-86
2021/01/15 05:01:45;;;;;;;1.40;0.70;;;8.80;1.00;;;;;;5093338;28;20028;-86
2021/01/15 05:04:12;;;;;;;0.55;0.55;;;8.70;1.00;;;;;;5091925;28;20039;-86
2021/01/15 05:06:49;;;;;;;0.80;0.47;;;8.60;1.00;;;;;;5093176;28;20024;-86
2021/01/15 05:09:19;;;;;;;1.63;0.70;;;8.70;1.00;;;;;;5092672;28;20154;-86
2021/01/15 05:11:46;;;;;;;1.08;0.70;;;8.70;1.00;;;;;;5091761;28;20074;-86
2021/01/15 05:14:14;;;;;;;0.75;0.50;;;8.70;1.00;;;;;;5093234;28;20023;-86
2021/01/15 05:16:42;;;;;;;0.75;0.60;;;8.70;1.00;;;;;;5100806;28;20055;-86
2021/01/15 05:19:09;;;;;;;1.02;0.50;;;8.60;1.00;;;;;;5104537;28;20482;-86
2021/01/15 05:21:36;;;;;;;0.77;0.63;;;8.60;1.00;;;;;;5092522;28;20074;-85
2021/01/15 05:24:02;;;;;;;0.90;0.70;;;8.60;1.00;;;;;;5092839;28;20028;-86
2021/01/15 05:26:28;;;;;;;1.77;0.68;;;8.60;1.00;;;;;;5091530;28;20031;-86
2021/01/15 05:28:54;;;;;;;1.50;0.80;;;8.60;1.00;;;;;;5092801;28;20485;-86
2021/01/15 05:31:22;;;;;;;0.63;0.50;;;8.70;1.00;;;;;;5092593;28;20085;-85
2021/01/15 05:34:08;;;;;;;0.63;0.60;;;8.60;1.00;;;;;;5098335;28;20057;-85
2021/01/15 05:36:35;;;;;;;1.25;0.77;;;8.60;1.00;;;;;;5111241;28;20035;-86
2021/01/15 05:39:20;;;;;;;1.15;0.90;;;8.50;1.00;;;;;;5112903;28;20085;-86
2021/01/15 05:41:48;;;;;;;2.35;0.88;;;8.40;1.00;;;;;;5111749;28;20420;-86
2021/01/15 05:44:28;;;;;;;0.88;0.63;;;8.40;1.00;;;;;;5113086;28;20030;-85
2021/01/15 05:46:55;;;;;;;2.55;0.90;;;8.30;1.00;;;;;;5112992;28;20059;-86
2021/01/15 05:49:21;;;;;;;0.65;0.63;;;8.30;1.00;;;;;;5107679;28;20024;-86
2021/01/15 05:51:46;;;;;;;0.60;0.55;;;8.10;1.00;;;;;;5111249;28;20030;-86
2021/01/15 05:54:26;;;;;;;1.15;0.60;;;8.10;1.00;;;;;;5111554;28;20024;-86
2021/01/15 05:56:53;;;;;;;1.30;0.52;;;8.10;1.00;;;;;;5112789;28;20015;-86
2021/01/15 05:59:19;;;;;;;0.65;0.60;;;8.10;1.00;;;;;;5111596;28;20118;-86
2021/01/15 06:01:58;;;;;;;0.70;0.50;;;8.00;1.00;;;;;;5111433;28;20103;-85
2021/01/15 06:04:33;;;;;;;1.23;0.65;;;8.10;1.00;;;;;;5090509;28;20448;-86
2021/01/15 06:07:00;;;;;;;0.90;0.60;;;8.10;1.00;;;;;;5092354;28;20501;-86
2021/01/15 06:09:26;;;;;;;2.05;0.75;;;8.20;1.00;;;;;;5092114;28;20098;-86
2021/01/15 06:11:52;;;;;;;3.05;1.00;;;8.20;1.00;;;;;;5091077;28;20573;-86
2021/01/15 06:14:23;;;;;;;1.02;0.70;;;8.00;1.00;;;;;;5092664;28;20065;-86
2021/01/15 06:17:06;;;;;;;1.27;0.70;;;8.00;1.00;;;;;;5101421;28;20473;-86
2021/01/15 06:19:53;;;;;;;1.15;0.50;;;7.90;1.00;;;;;;5106060;28;20032;-86
2021/01/15 06:22:49;;;;;;;1.13;0.60;;;7.80;1.00;;;;;;5111319;28;20038;-86
2021/01/15 06:25:36;;;;;;;1.83;0.80;;;7.70;1.00;;;;;;5112529;28;20027;-86
2021/01/15 06:28:09;;;;;;;1.67;0.57;;;7.80;1.00;;;;;;5111193;28;20023;-86
2021/01/15 06:30:37;;;;;;;0.68;0.50;;;8.00;1.00;;;;;;5112194;28;20023;-85
2021/01/15 06:33:08;;;;;;;1.42;0.60;;;7.80;1.00;;;;;;5104334;28;20024;-85
2021/01/15 06:35:35;;;;;;;0.70;0.55;;;7.90;1.00;;;;;;5091615;28;20587;-86
2021/01/15 06:38:06;;;;;;;1.55;0.85;;;8.00;1.00;;;;;;5091982;28;20029;-85
2021/01/15 06:40:43;;;;;;;1.77;1.00;;;8.00;1.00;;;;;;5090358;28;20056;-85
2021/01/15 06:43:19;;;;;;;1.25;1.15;;;8.10;1.00;;;;;;5092000;28;20032;-86
2021/01/15 06:45:49;;;;;;;0.98;0.80;;;8.00;1.00;;;;;;5091794;28;21081;-86
2021/01/15 06:48:18;;;;;;;0.90;0.75;;;8.10;1.00;;;;;;5092041;28;20057;-86
2021/01/15 06:50:46;;;;;;;1.08;0.80;;;7.70;1.00;;;;;;5090016;28;20056;-86
2021/01/15 06:53:19;;;;;;;0.68;0.68;;;7.70;1.00;;;;;;5092051;28;20389;-86
2021/01/15 06:55:47;;;;;;;0.93;0.80;;;7.70;1.00;;;;;;5091670;28;20032;-86
2021/01/15 06:58:19;;;;;;;1.50;0.95;;;7.60;1.00;;;;;;5090675;28;20078;-85
2021/01/15 07:01:20;;;;;;;0.50;0.50;;;7.70;1.00;;;;;;5094179;28;20035;-86
2021/01/15 07:04:23;;;;;;;2.60;1.10;;;7.50;1.00;;;;;;5095362;28;20084;-85
2021/01/15 07:07:01;;;;;;;0.70;0.60;;;7.60;1.00;;;;;;5094192;28;20486;-86
2021/01/15 07:09:29;;;;;;;0.50;0.50;;;7.50;1.00;;;;;;5095400;28;20024;-85
2021/01/15 07:11:56;;;;;;;0.50;0.50;;;7.60;1.00;;;;;;5094067;28;20031;-86
2021/01/15 07:14:27;;;;;;;0.77;0.45;;;7.60;1.00;;;;;;5094119;28;20151;-86
2021/01/15 07:16:57;;;;;;;0.75;0.50;;;7.60;1.00;;;;;;5102149;28;20067;-85
2021/01/15 07:19:35;;;;;;;2.15;0.60;;;7.90;1.00;;;;;;5096679;28;20024;-86
2021/01/15 07:22:01;;;;;;;1.00;0.70;;;7.70;1.00;;;;;;5094033;28;20024;-85
2021/01/15 07:24:28;;;;;;;0.60;0.60;;;7.70;1.00;;;;;;5095016;28;20024;-86
2021/01/15 07:26:54;;;;;;;0.80;0.80;;;7.60;1.00;;;;;;5093805;28;20047;-86
2021/01/15 07:29:20;;;;;;;0.90;0.70;;;7.40;1.00;;;;;;5094907;28;20028;-85
2021/01/15 07:31:50;;;;;;;0.88;0.70;;;7.70;1.00;;;;;;5094674;28;20122;-85
2021/01/15 07:34:18;;;;;;;0.60;0.60;;;7.30;1.00;;;;;;5094702;28;20493;-86
2021/01/15 07:36:44;;;;;;;1.55;0.70;;;7.80;1.00;;;;;;5093537;28;20515;-86
2021/01/15 07:39:17;;;;;;;0.70;0.70;;;7.30;1.00;;;;;;5093318;28;20075;-86
2021/01/15 07:41:49;;;;;;;0.68;0.60;;;7.20;1.00;;;;;;5095025;28;20020;-84
2021/01/15 07:44:21;;;;;;;1.02;0.60;;;7.20;1.00;;;;;;5093580;28;20456;-86
2021/01/15 07:46:59;;;;;;;1.15;0.85;;;7.10;1.00;;;;;;5096631;28;20168;-86
2021/01/15 07:49:41;;;;;;;1.55;0.80;;;7.10;1.00;;;;;;5098097;28;20024;-86
2021/01/15 07:52:08;;;;;;;1.67;0.80;;;7.60;1.00;;;;;;5094701;28;20074;-85
2021/01/15 07:55:06;;;;;;;4.00;3.33;;;7.10;1.00;;;;;;5093471;28;20016;-85
2021/01/15 07:57:32;;;;;;;4.25;3.85;;;6.80;1.00;;;;;;5094406;28;20024;-86
2021/01/15 08:00:24;;;;;;;5.20;2.95;;;7.10;1.00;;;;;;5094135;28;20031;-86
2021/01/15 08:02:57;;;;;;;4.15;2.00;;;7.00;1.00;;;;;;5092410;28;20027;-86
2021/01/15 08:05:23;;;;;;;14.50;7.38;;;7.00;1.00;;;;;;5093165;28;20047;-86
2021/01/15 08:07:49;;;;;;;14.65;6.80;;;7.00;1.00;;;;;;5094184;28;20028;-86
2021/01/15 08:10:24;;;;;;;2.75;1.45;;;7.00;1.00;;;;;;5092922;28;20028;-86
2021/01/15 08:12:50;;;;;;;0.80;0.73;;;6.90;1.00;;;;;;5092078;28;20024;-86
2021/01/15 08:15:32;;;;;;;1.92;1.10;;;6.90;1.00;;;;;;5094299;28;20103;-86
2021/01/15 08:18:03;;;;;;;2.10;1.10;;;7.40;1.00;;;;;;5109069;28;20024;-87
2021/01/15 08:20:28;;;;;;;1.77;1.27;;;7.00;1.00;;;;;;5094144;28;20077;-86
2021/01/15 08:22:54;;;;;;;10.07;4.93;;;7.10;1.00;;;;;;5109562;28;20020;-87
2021/01/15 08:25:24;;;;;;;5.43;3.63;;;7.10;1.00;;;;;;5109897;28;20024;-86
2021/01/15 08:27:50;;;;;;;10.55;6.38;;;7.20;1.00;;;;;;5109516;28;20497;-87
2021/01/15 08:30:16;;;;;;;5.30;3.30;;;7.50;1.00;;;;;;5108624;28;20024;-86
2021/01/15 08:32:41;;;;;;;20.30;12.30;;;7.00;1.00;;;;;;5093868;28;20028;-85
2021/01/15 08:35:12;;;;;;;22.88;12.48;;;7.00;1.00;;;;;;5093575;28;20020;-86
2021/01/15 08:37:39;;;;;;;12.50;7.55;;;7.00;1.00;;;;;;5096621;28;20055;-84
2021/01/15 08:40:06;;;;;;;3.88;1.90;;;7.10;1.00;;;;;;5093487;28;20579;-85
2021/01/15 08:42:32;;;;;;;4.75;2.15;;;7.00;1.00;;;;;;5093553;28;20489;-86
2021/01/15 08:44:59;;;;;;;3.13;1.60;;;7.20;1.00;;;;;;5093210;28;20042;-85
2021/01/15 08:47:25;;;;;;;9.05;5.05;;;7.00;1.00;;;;;;5093662;28;20031;-86
2021/01/15 08:49:56;;;;;;;5.88;3.30;;;7.20;1.00;;;;;;5093103;28;20439;-85
2021/01/15 08:52:25;;;;;;;15.23;8.00;;;7.30;1.00;;;;;;5092864;28;20096;-87
2021/01/15 08:54:52;;;;;;;3.95;2.83;;;7.20;1.00;;;;;;5092101;28;20021;-86
2021/01/15 08:57:29;;;;;;;3.30;1.60;;;7.10;1.00;;;;;;5093354;28;20030;-85
2021/01/15 08:59:55;;;;;;;3.28;1.40;;;7.00;1.00;;;;;;5091562;28;20058;-85
2021/01/15 09:02:22;;;;;;;2.70;1.30;;;7.00;1.00;;;;;;5093358;28;20028;-86
2021/01/15 09:04:49;;;;;;;6.53;2.38;;;7.10;1.00;;;;;;5091035;28;20161;-85
2021/01/15 09:07:16;;;;;;;3.83;1.25;;;7.20;1.00;;;;;;5112575;28;20495;-84
2021/01/15 09:09:42;;;;;;;3.13;1.40;;;7.00;1.00;;;;;;5113372;28;20019;-85
2021/01/15 09:12:09;;;;;;;27.25;15.15;;;7.10;1.00;;;;;;5112167;28;20023;-86
2021/01/15 09:14:38;;;;;;;2.75;1.90;;;7.20;1.00;;;;;;5111432;28;20020;-86
2021/01/15 09:17:08;;;;;;;5.53;2.70;;;7.10;1.00;;;;;;5111720;28;20027;-86
2021/01/15 09:19:35;;;;;;;25.98;12.38;;;7.10;1.00;;;;;;5110026;28;20019;-86
2021/01/15 09:22:04;;;;;;;45.95;26.60;;;6.90;1.00;;;;;;5092208;28;20016;-86
2021/01/15 09:24:32;;;;;;;12.00;6.80;;;7.40;1.00;;;;;;5090727;28;20166;-87
2021/01/15 09:27:00;;;;;;;32.42;18.80;;;6.80;1.00;;;;;;5092767;28;20020;-86
2021/01/15 09:29:26;;;;;;;23.00;12.23;;;7.00;1.00;;;;;;5091094;28;20308;-86
2021/01/15 09:31:52;;;;;;;30.88;17.08;;;7.10;1.00;;;;;;5091348;28;20043;-86
2021/01/15 09:34:19;;;;;;;42.92;20.48;;;6.90;1.00;;;;;;5091552;28;20020;-86
2021/01/15 09:36:46;;;;;;;15.10;7.88;;;6.70;1.00;;;;;;5091094;28;20024;-86
2021/01/15 09:39:16;;;;;;;5.28;3.42;;;7.10;1.00;;;;;;5092382;28;20037;-86
2021/01/15 09:41:47;;;;;;;6.32;4.00;;;6.50;1.00;;;;;;5091467;28;20413;-87
2021/01/15 09:44:15;;;;;;;13.82;7.45;;;6.40;1.00;;;;;;5097399;28;20028;-85
2021/01/15 09:46:41;;;;;;;3.63;2.95;;;6.20;1.00;;;;;;5102025;28;20389;-84
2021/01/15 09:49:07;;;;;;;3.72;2.72;;;6.10;1.00;;;;;;5097107;28;20024;-85
2021/01/15 09:51:33;;;;;;;5.97;3.85;;;6.20;1.00;;;;;;5106947;28;20062;-85
2021/01/15 09:53:59;;;;;;;4.55;3.80;;;6.20;1.00;;;;;;5103853;28;20020;-88
2021/01/15 09:56:30;;;;;;;4.88;2.85;;;6.20;1.00;;;;;;5107266;28;20051;-84
2021/01/15 09:58:57;;;;;;;3.42;2.85;;;6.10;1.00;;;;;;5090369;28;20107;-85
2021/01/15 10:01:27;;;;;;;3.30;3.00;;;5.90;1.00;;;;;;5092195;28;20066;-85
2021/01/15 10:03:55;;;;;;;4.28;3.70;;;6.00;1.00;;;;;;5108099;28;20028;-85
2021/01/15 10:06:20;;;;;;;4.32;2.20;;;6.20;1.00;;;;;;5092121;28;20548;-85
2021/01/15 10:08:47;;;;;;;5.03;4.10;;;6.20;1.00;;;;;;5091233;28;20119;-85
2021/01/15 10:11:27;;;;;;;2.17;1.88;;;5.90;1.00;;;;;;5091939;28;20562;-85
2021/01/15 10:13:57;;;;;;;19.33;11.75;;;5.50;1.00;;;;;;5091059;28;20028;-85
2021/01/15 10:16:24;;;;;;;11.45;6.75;;;5.60;1.00;;;;;;5102073;28;20026;-85
2021/01/15 10:18:50;;;;;;;131.82;67.57;;;5.60;1.00;;;;;;5128364;27;20023;-85
2021/01/15 10:21:24;;;;;;;29.55;18.08;;;5.80;1.00;;;;;;5094293;28;20020;-85
2021/01/15 10:23:51;;;;;;;3.33;3.03;;;5.80;1.00;;;;;;5091787;28;20024;-85
2021/01/15 10:26:28;;;;;;;2.75;2.50;;;5.60;1.00;;;;;;5091788;28;20024;-85
2021/01/15 10:28:58;;;;;;;6.90;5.65;;;5.70;1.00;;;;;;5090925;28;20038;-85
2021/01/15 10:31:32;;;;;;;4.72;4.28;;;5.70;1.00;;;;;;5092157;28;20035;-85
2021/01/15 10:33:58;;;;;;;3.22;2.92;;;5.60;1.00;;;;;;5090559;28;20059;-85
2021/01/15 10:36:25;;;;;;;4.18;3.78;;;5.70;1.00;;;;;;5094468;28;20027;-85
2021/01/15 10:38:51;;;;;;;8.85;7.95;;;5.80;1.00;;;;;;5094511;28;20040;-85
2021/01/15 10:41:29;;;;;;;4.13;3.55;;;5.70;1.00;;;;;;5094407;28;20028;-85
2021/01/15 10:43:56;;;;;;;1.70;1.60;;;5.70;1.00;;;;;;5094777;28;20032;-85
2021/01/15 10:46:52;;;;;;;1.92;1.83;;;5.60;1.00;;;;;;5094457;28;20111;-85
2021/01/15 10:49:19;;;;;;;2.38;2.17;;;5.50;1.00;;;;;;5096960;28;20451;-85
2021/01/15 10:51:46;;;;;;;3.00;2.70;;;5.60;1.00;;;;;;5095665;28;20031;-85
2021/01/15 10:54:12;;;;;;;4.13;3.42;;;5.60;1.00;;;;;;5096010;28;20027;-84
2021/01/15 10:56:43;;;;;;;3.03;2.45;;;5.70;1.00;;;;;;5115788;28;20027;-85
2021/01/15 10:59:09;;;;;;;3.40;3.10;;;5.60;1.00;;;;;;5108385;28;20405;-85
2021/01/15 11:01:44;;;;;;;3.75;3.28;;;5.60;1.00;;;;;;5094232;28;20063;-85
2021/01/15 11:04:11;;;;;;;3.25;2.95;;;5.80;1.00;;;;;;5102124;28;20469;-84
2021/01/15 11:06:38;;;;;;;2.78;2.58;;;6.00;1.00;;;;;;5108903;28;20477;-85
2021/01/15 11:09:09;;;;;;;2.88;2.60;;;6.10;1.00;;;;;;5108426;28;20020;-85
2021/01/15 11:11:34;;;;;;;2.15;1.95;;;6.10;1.00;;;;;;5115007;28;20076;-84
2021/01/15 11:14:00;;;;;;;2.30;2.08;;;6.20;1.00;;;;;;5115231;28;20023;-85
2021/01/15 11:16:26;;;;;;;2.58;2.38;;;6.10;1.00;;;;;;5113285;28;20034;-85
2021/01/15 11:18:53;;;;;;;2.13;1.92;;;6.00;1.00;;;;;;5108694;28;20028;-84
2021/01/15 11:21:26;;;;;;;2.40;2.20;;;6.00;1.00;;;;;;5094519;28;20068;-84
2021/01/15 11:23:52;;;;;;;3.47;2.33;;;6.00;1.00;;;;;;5094402;28;20528;-85
2021/01/15 11:26:24;;;;;;;2.55;2.35;;;6.00;1.00;;;;;;5094339;28;20630;-84
2021/01/15 11:28:51;;;;;;;2.25;2.15;;;6.00;1.00;;;;;;5094332;28;20101;-83
2021/01/15 11:31:17;;;;;;;2.13;1.92;;;6.00;1.00;;;;;;5100824;28;20369;-84
2021/01/15 11:33:43;;;;;;;2.40;2.20;;;6.10;1.00;;;;;;5104821;28;20065;-84
2021/01/15 11:36:12;;;;;;;2.42;2.22;;;6.10;1.00;;;;;;5113992;28;20077;-83
2021/01/15 11:38:38;;;;;;;2.13;1.92;;;6.10;1.00;;;;;;5104159;28;21275;-84
2021/01/15 11:41:11;;;;;;;2.20;2.00;;;6.00;1.00;;;;;;5104113;28;20504;-84
2021/01/15 11:43:38;;;;;;;3.08;2.60;;;6.10;1.00;;;;;;5100579;28;20016;-84
2021/01/15 11:46:05;;;;;;;2.03;1.83;;;6.10;1.00;;;;;;5104346;28;20063;-83
2021/01/15 11:48:31;;;;;;;2.40;2.20;;;6.00;1.00;;;;;;5102376;28;20032;-84
2021/01/15 11:50:57;;;;;;;2.85;2.00;;;6.10;1.00;;;;;;5092996;28;20058;-86
2021/01/15 11:53:24;;;;;;;2.55;2.03;;;6.00;1.00;;;;;;5106260;28;20043;-85
2021/01/15 11:55:54;;;;;;;2.30;2.10;;;6.20;1.00;;;;;;5099716;28;20024;-85
2021/01/15 11:58:23;;;;;;;1.90;1.80;;;6.20;1.00;;;;;;5102882;28;20488;-82
2021/01/15 12:00:49;;;;;;;2.20;2.00;;;6.20;1.00;;;;;;5095303;28;20035;-84
2021/01/15 12:03:14;;;;;;;2.17;1.98;;;6.20;1.00;;;;;;5091785;28;20067;-84
2021/01/15 12:05:41;;;;;;;2.63;2.40;;;6.30;1.00;;;;;;5093515;28;20036;-83
2021/01/15 12:08:07;;;;;;;5.95;4.35;;;6.30;1.00;;;;;;5092262;28;20139;-83
2021/01/15 12:10:33;;;;;;;55.35;40.90;;;6.10;1.00;;;;;;5093500;28;20102;-84
2021/01/15 12:12:59;;;;;;;3.72;3.20;;;6.00;1.00;;;;;;5093758;28;20028;-84
2021/01/15 12:15:25;;;;;;;55.75;33.38;;;5.90;1.00;;;;;;5093845;28;20028;-84
2021/01/15 12:17:50;;;;;;;23.67;12.52;;;5.90;1.00;;;;;;5091664;28;20051;-84
2021/01/15 12:20:16;;;;;;;2.60;2.40;;;5.70;1.00;;;;;;5111291;28;20538;-84
2021/01/15 12:22:41;;;;;;;7.00;4.40;;;5.80;1.00;;;;;;5112715;28;20536;-85
2021/01/15 12:25:08;;;;;;;7.05;3.85;;;5.90;1.00;;;;;;5114027;28;20508;-85
2021/01/15 12:27:36;;;;;;;23.58;14.77;;;5.90;1.00;;;;;;5099300;28;20439;-85
2021/01/15 12:30:06;;;;;;;19.05;12.30;;;6.00;1.00;;;;;;5106375;28;20031;-85
2021/01/15 12:32:32;;;;;;;34.33;20.63;;;5.90;1.00;;;;;;5102634;28;20023;-84
2021/01/15 12:34:58;;;;;;;42.60;26.95;;;6.10;1.00;;;;;;5112791;28;20028;-85
2021/01/15 12:37:25;;;;;;;7.50;5.35;;;6.10;1.00;;;;;;5112562;28;20500;-85
2021/01/15 12:39:51;;;;;;;3.92;3.20;;;6.00;1.00;;;;;;5112360;28;20058;-92
2021/01/15 12:42:17;;;;;;;13.43;9.98;;;6.00;1.00;;;;;;5111521;28;20106;-88
2021/01/15 12:44:43;;;;;;;8.43;5.18;;;6.00;1.00;;;;;;5113909;28;20107;-86
2021/01/15 12:47:09;;;;;;;5.32;4.82;;;6.00;1.00;;;;;;5111841;28;20536;-84
2021/01/15 12:49:34;;;;;;;5.47;4.97;;;5.90;1.00;;;;;;5101227;28;20118;-84
2021/01/15 12:52:00;;;;;;;3.00;2.70;;;6.00;1.00;;;;;;5091761;28;20493;-83
2021/01/15 12:54:26;;;;;;;8.52;7.80;;;6.00;1.00;;;;;;5093350;28;20100;-84
2021/01/15 12:56:51;;;;;;;10.82;9.82;;;6.30;1.00;;;;;;5110132;28;20020;-85
2021/01/15 12:59:17;;;;;;;4.57;4.13;;;5.90;1.00;;;;;;5113575;28;20063;-83
2021/01/15 13:01:43;;;;;;;5.00;4.60;;;5.80;1.00;;;;;;5113369;28;20044;-83
2021/01/15 13:04:09;;;;;;;8.25;7.45;;;5.80;1.00;;;;;;5093488;28;20028;-83
2021/01/15 13:06:38;;;;;;;5.68;5.18;;;5.90;1.00;;;;;;5092730;28;20028;-84
2021/01/15 13:09:05;;;;;;;22.30;20.10;;;5.80;1.00;;;;;;5093187;28;20020;-83
2021/01/15 13:11:32;;;;;;;3.72;3.42;;;5.90;1.00;;;;;;5093091;28;20059;-84
2021/01/15 13:13:58;;;;;;;12.25;11.25;;;5.70;1.00;;;;;;5091667;28;20017;-84
2021/01/15 13:16:30;;;;;;;9.85;8.95;;;5.70;1.00;;;;;;5093023;28;20038;-83